createdAt,value
2022-09-15T00:12:45.795Z,95148.03
2022-09-15T00:27:47.810Z,95133.00
2022-09-15T00:42:49.775Z,95123.50
2022-09-15T00:57:56.153Z,95130.59
2022-09-15T01:12:59.151Z,95128.34
2022-09-15T01:28:04.093Z,95118.81
2022-09-15T01:43:06.155Z,95094.63
2022-09-15T01:58:08.075Z,95088.09
2022-09-15T02:13:22.050Z,95080.97
2022-09-15T02:28:37.087Z,95077.25
2022-09-15T02:43:46.098Z,95078.84
2022-09-15T02:58:48.089Z,95070.38
2022-09-15T03:13:53.192Z,95062.28
2022-09-15T03:28:55.298Z,95055.16
2022-09-15T03:43:57.829Z,95053.34
2022-09-15T03:59:01.346Z,95046.91
2022-09-15T04:14:03.228Z,95047.72
2022-09-15T04:29:05.686Z,95042.44
2022-09-15T04:44:07.566Z,95039.56
2022-09-15T04:59:12.323Z,95047.38
2022-09-15T05:14:14.230Z,95045.63
2022-09-15T05:29:16.136Z,95041.72
2022-09-15T05:44:18.048Z,95072.47
2022-09-15T05:59:19.893Z,95073.88
2022-09-15T06:14:21.747Z,95093.78
2022-09-15T06:29:24.196Z,95088.19
2022-09-15T06:44:26.072Z,95100.25
2022-09-15T06:59:28.006Z,95121.00
2022-09-15T07:14:30.039Z,95124.88
2022-09-15T07:29:35.851Z,95157.75
2022-09-15T07:44:39.603Z,95157.41
2022-09-15T07:59:42.071Z,95158.28
2022-09-15T08:14:44.125Z,95173.53
2022-09-15T08:29:46.078Z,95203.34
2022-09-15T08:45:14.293Z,95215.97
2022-09-15T09:00:16.876Z,95217.47
2022-09-15T09:15:31.103Z,95212.88
2022-09-15T09:30:33.021Z,95211.03
2022-09-15T09:45:34.914Z,95216.97
2022-09-15T10:00:37.640Z,95208.72
2022-09-15T10:15:39.511Z,95204.38
2022-09-15T10:31:00.453Z,95225.81
2022-09-15T10:46:09.244Z,95247.53
2022-09-15T11:01:29.892Z,95272.59
2022-09-15T11:16:35.043Z,95276.31
2022-09-15T11:31:38.833Z,95296.59
2022-09-15T11:46:40.905Z,95284.59
2022-09-15T12:01:53.700Z,95318.38
2022-09-15T12:16:55.678Z,95307.69
2022-09-15T12:32:16.906Z,95339.97
2022-09-15T12:47:26.766Z,95348.19
2022-09-15T13:02:42.182Z,95347.25
2022-09-15T13:17:44.483Z,95358.06
2022-09-15T13:32:52.266Z,95368.56
2022-09-15T13:48:16.878Z,95367.63
2022-09-15T14:03:20.387Z,95351.78
2022-09-15T14:18:22.415Z,95348.34
2022-09-15T14:33:24.331Z,95369.25
2022-09-15T14:48:28.203Z,95351.50
2022-09-15T15:03:35.484Z,95372.72
2022-09-15T15:18:40.813Z,95380.41
2022-09-15T15:33:46.589Z,95379.09
2022-09-15T15:48:51.563Z,95398.34
2022-09-15T16:03:54.039Z,95400.75
2022-09-15T16:18:56.149Z,95403.06
2022-09-15T16:33:58.027Z,95426.81
2022-09-15T16:48:59.921Z,95435.97
2022-09-15T17:04:02.232Z,95444.78
2022-09-15T17:19:04.180Z,95459.41
2022-09-15T17:34:06.366Z,95466.94
2022-09-15T17:49:08.355Z,95473.84
2022-09-15T18:04:10.694Z,95476.34
2022-09-15T18:19:12.561Z,95502.47
2022-09-15T18:34:14.415Z,95512.94
2022-09-15T18:49:16.304Z,95524.03
2022-09-15T19:04:18.181Z,95526.22
2022-09-15T19:19:20.070Z,95536.84
2022-09-15T19:34:21.965Z,95535.94
2022-09-15T19:49:23.920Z,95541.38
2022-09-15T20:04:25.885Z,95546.56
2022-09-15T20:19:27.965Z,95555.44
2022-09-15T20:34:29.951Z,95560.81
2022-09-15T20:49:31.962Z,95543.84
2022-09-15T21:04:33.909Z,95550.09
2022-09-15T21:19:37.890Z,95550.88
2022-09-15T21:34:39.828Z,95546.19
2022-09-15T21:49:41.710Z,95558.28
2022-09-15T22:04:43.598Z,95550.31
2022-09-15T22:19:45.463Z,95554.50
2022-09-15T22:34:48.722Z,95548.22
2022-09-15T22:49:50.595Z,95561.06
2022-09-15T23:04:54.147Z,95559.66
2022-09-15T23:19:56.011Z,95558.50
2022-09-15T23:34:58.026Z,95568.41
2022-09-15T23:50:00.273Z,95559.13
